Kershaw, SC (29067)

5:12 PM EDT on April 27, 2017 (GMT -0400)
Taxahaw | | Change Station
Active Advisory: Flood Warning

Elev 528 ft 34.70 °N, 80.54 °W | Updated 0 second ago

Mostly Cloudy
Mostly Cloudy
76.8 °F
Feels Like 78 °F
N
1.1
Wind Variable Wind from South
Gusts 3.5 mph

Today
High -- | Low -- °F
--% Chance of Precip.
Yesterday
High -- | Low -- °F
Precip. -- in
Pressure 29.87 in
Visibility 9.0 miles
Clouds Mostly Cloudy 8000 ft
Heat Index 78 °F
Dew Point 69 °F
Humidity 76%
Rainfall 0.00 in
Snow Depth Not available.
6:36 AM 8:04 PM
Waxing Crescent, 3% visible
METAR KCDN 272055Z AUTO 18003G10KT 9SM BKN080 27/19 A2987 RMK AO2
Pressure 29.87 in
Visibility 9.0 miles
Clouds Mostly Cloudy 8000 ft
Heat Index 78 °F
Dew Point 69 °F
Humidity 76%
Rainfall 0.00 in
Snow Depth Not available.
6:36 AM 8:04 PM
Waxing Crescent, 3% visible
METAR KCDN 272055Z AUTO 18003G10KT 9SM BKN080 27/19 A2987 RMK AO2

Get Your Daily Forecast Email!

Thanks for signing up!

Be on the lookout for a verification email in your inbox.

You'll start receiving severe weather alerts in your inbox..

×

10-Day Weather Forecast

Almanac

Astronomy

Apr. 27, 2017 Rise Set
Actual Time
Civil Twilight
Nautical Twilight
Astronomical Twilight
Moon
Length of Visible Light
Length of Day
Tomorrow will be .
, % of the Moon is Illuminated

Today's Extremes

State Highs State Lows

Community

WunderPhotos

WunderBlog® & News

Nearby

Air Quality

  Air Quality AQ Index Pollutant
Not available.

Snow Depth

Station Depth Elevation

Earthquake Activity

City Distance Mag. Time & Date
Minimum magnitude displayed is 2.5.

Coastal Water Temperatures

Place Temperature

Stations

Nearby Weather Stations

Station Location Temp. Windchill Dew Point Humidity Wind Precip. Elev Updated Type
                   

Watches & Warnings

Flood Warning
Issued: 3:03 PM EDT Apr. 27, 2017 – National Weather Service

The Flood Warning continues for
the Wateree river at Lake Wateree.
* Until late Sunday night... or until the warning is cancelled.
* At 1 PM Thursday the stage was 100.7 feet.
* Flood stage is 100.0 feet.
* Minor flooding is occurring and minor flooding is forecast.
* Forecast... the river will continue to fall... going below flood
stage by after midnight Sunday morning.
* At 100.5 feet... yards and docks in low lying areas begin to flood.
Flooding also occurs along wildlife Road and piers along Singleton
creek begin to flood.


Lat... Lon 3450 8085 3432 8063 3428 8075 3447 8098